sensor_id;sensor_type;location;lat;lon;timestamp;P1;durP1;ratioP1;P2;durP2;ratioP2
44270;SDS011;29963;44.594;11.368;2023-05-21T00:01:35;39.28;;;31.90;;
44270;SDS011;29963;44.594;11.368;2023-05-21T00:04:01;41.45;;;33.33;;
44270;SDS011;29963;44.594;11.368;2023-05-21T00:06:27;42.90;;;32.58;;
44270;SDS011;29963;44.594;11.368;2023-05-21T00:08:53;41.92;;;32.00;;
44270;SDS011;29963;44.594;11.368;2023-05-21T00:11:18;44.45;;;33.65;;
44270;SDS011;29963;44.594;11.368;2023-05-21T00:13:44;47.17;;;34.55;;
44270;SDS011;29963;44.594;11.368;2023-05-21T00:16:09;50.53;;;34.33;;
44270;SDS011;29963;44.594;11.368;2023-05-21T00:18:35;44.03;;;32.65;;
44270;SDS011;29963;44.594;11.368;2023-05-21T00:21:03;41.70;;;31.80;;
44270;SDS011;29963;44.594;11.368;2023-05-21T00:23:29;43.92;;;34.22;;
44270;SDS011;29963;44.594;11.368;2023-05-21T00:25:57;43.83;;;35.47;;
44270;SDS011;29963;44.594;11.368;2023-05-21T00:28:25;52.60;;;34.95;;
44270;SDS011;29963;44.594;11.368;2023-05-21T00:30:51;47.28;;;35.65;;
44270;SDS011;29963;44.594;11.368;2023-05-21T00:33:16;46.72;;;36.25;;
44270;SDS011;29963;44.594;11.368;2023-05-21T00:35:42;55.38;;;37.55;;
44270;SDS011;29963;44.594;11.368;2023-05-21T00:38:07;54.92;;;39.22;;
44270;SDS011;29963;44.594;11.368;2023-05-21T00:40:34;53.42;;;37.50;;
44270;SDS011;29963;44.594;11.368;2023-05-21T00:43:00;58.03;;;40.80;;
44270;SDS011;29963;44.594;11.368;2023-05-21T00:45:26;64.63;;;42.35;;
44270;SDS011;29963;44.594;11.368;2023-05-21T00:47:51;58.15;;;40.45;;
44270;SDS011;29963;44.594;11.368;2023-05-21T00:50:19;61.78;;;42.08;;
44270;SDS011;29963;44.594;11.368;2023-05-21T00:52:46;57.80;;;39.55;;
44270;SDS011;29963;44.594;11.368;2023-05-21T00:55:12;61.60;;;42.30;;
44270;SDS011;29963;44.594;11.368;2023-05-21T00:57:39;60.88;;;40.45;;
44270;SDS011;29963;44.594;11.368;2023-05-21T01:00:05;54.13;;;39.15;;
44270;SDS011;29963;44.594;11.368;2023-05-21T01:02:32;61.05;;;38.30;;
44270;SDS011;29963;44.594;11.368;2023-05-21T01:05:01;52.97;;;41.00;;
44270;SDS011;29963;44.594;11.368;2023-05-21T01:07:29;53.80;;;39.72;;
44270;SDS011;29963;44.594;11.368;2023-05-21T01:09:58;54.15;;;40.25;;
44270;SDS011;29963;44.594;11.368;2023-05-21T01:12:28;52.78;;;39.83;;
44270;SDS011;29963;44.594;11.368;2023-05-21T01:14:56;56.80;;;39.03;;
44270;SDS011;29963;44.594;11.368;2023-05-21T01:17:24;56.33;;;39.80;;
44270;SDS011;29963;44.594;11.368;2023-05-21T01:19:51;52.60;;;38.08;;
44270;SDS011;29963;44.594;11.368;2023-05-21T01:22:16;53.28;;;39.42;;
44270;SDS011;29963;44.594;11.368;2023-05-21T01:24:48;57.55;;;37.90;;
44270;SDS011;29963;44.594;11.368;2023-05-21T01:27:17;52.45;;;38.22;;
44270;SDS011;29963;44.594;11.368;2023-05-21T01:29:43;56.58;;;39.63;;
44270;SDS011;29963;44.594;11.368;2023-05-21T01:37:35;55.65;;;38.20;;
44270;SDS011;29963;44.594;11.368;2023-05-21T01:42:47;58.38;;;42.40;;
44270;SDS011;29963;44.594;11.368;2023-05-21T01:45:16;56.55;;;39.88;;
44270;SDS011;29963;44.594;11.368;2023-05-21T01:47:43;60.15;;;38.33;;
44270;SDS011;29963;44.594;11.368;2023-05-21T01:50:12;56.10;;;39.95;;
44270;SDS011;29963;44.594;11.368;2023-05-21T01:52:38;56.45;;;40.05;;
44270;SDS011;29963;44.594;11.368;2023-05-21T01:55:11;72.13;;;42.38;;
44270;SDS011;29963;44.594;11.368;2023-05-21T01:57:37;64.43;;;39.67;;
44270;SDS011;29963;44.594;11.368;2023-05-21T02:00:03;60.33;;;40.78;;
44270;SDS011;29963;44.594;11.368;2023-05-21T02:02:29;60.20;;;41.50;;
44270;SDS011;29963;44.594;11.368;2023-05-21T02:04:55;61.90;;;41.78;;
44270;SDS011;29963;44.594;11.368;2023-05-21T02:07:20;63.20;;;43.90;;
44270;SDS011;29963;44.594;11.368;2023-05-21T02:09:46;69.55;;;42.58;;
44270;SDS011;29963;44.594;11.368;2023-05-21T02:12:12;69.05;;;45.28;;
44270;SDS011;29963;44.594;11.368;2023-05-21T02:14:37;75.55;;;45.92;;
44270;SDS011;29963;44.594;11.368;2023-05-21T02:17:03;73.85;;;43.70;;
44270;SDS011;29963;44.594;11.368;2023-05-21T02:19:28;74.43;;;44.35;;
44270;SDS011;29963;44.594;11.368;2023-05-21T02:21:54;79.57;;;45.97;;
44270;SDS011;29963;44.594;11.368;2023-05-21T02:24:20;80.78;;;47.05;;
44270;SDS011;29963;44.594;11.368;2023-05-21T02:26:46;72.80;;;43.53;;
44270;SDS011;29963;44.594;11.368;2023-05-21T02:29:13;78.72;;;45.53;;
44270;SDS011;29963;44.594;11.368;2023-05-21T02:31:39;68.57;;;45.30;;
44270;SDS011;29963;44.594;11.368;2023-05-21T02:34:05;71.53;;;44.17;;
44270;SDS011;29963;44.594;11.368;2023-05-21T02:36:31;75.28;;;45.63;;
44270;SDS011;29963;44.594;11.368;2023-05-21T02:38:57;75.25;;;44.90;;
44270;SDS011;29963;44.594;11.368;2023-05-21T02:41:26;79.38;;;44.65;;
44270;SDS011;29963;44.594;11.368;2023-05-21T02:43:51;72.30;;;42.55;;
44270;SDS011;29963;44.594;11.368;2023-05-21T02:46:17;68.32;;;42.00;;
44270;SDS011;29963;44.594;11.368;2023-05-21T02:48:42;72.75;;;41.45;;
44270;SDS011;29963;44.594;11.368;2023-05-21T02:51:08;62.58;;;39.13;;
44270;SDS011;29963;44.594;11.368;2023-05-21T02:53:33;59.20;;;37.83;;
44270;SDS011;29963;44.594;11.368;2023-05-21T02:55:59;65.35;;;38.65;;
44270;SDS011;29963;44.594;11.368;2023-05-21T02:58:25;78.40;;;39.85;;
44270;SDS011;29963;44.594;11.368;2023-05-21T03:00:50;61.92;;;38.33;;
44270;SDS011;29963;44.594;11.368;2023-05-21T03:03:17;62.20;;;37.80;;
44270;SDS011;29963;44.594;11.368;2023-05-21T03:05:43;63.38;;;38.42;;
44270;SDS011;29963;44.594;11.368;2023-05-21T03:08:09;59.47;;;37.20;;
44270;SDS011;29963;44.594;11.368;2023-05-21T03:10:35;54.55;;;36.40;;
44270;SDS011;29963;44.594;11.368;2023-05-21T03:13:00;56.30;;;34.08;;
44270;SDS011;29963;44.594;11.368;2023-05-21T03:15:28;52.08;;;32.90;;
44270;SDS011;29963;44.594;11.368;2023-05-21T03:17:57;50.45;;;35.63;;
44270;SDS011;29963;44.594;11.368;2023-05-21T03:20:23;54.97;;;34.83;;
44270;SDS011;29963;44.594;11.368;2023-05-21T03:22:48;51.95;;;33.83;;
44270;SDS011;29963;44.594;11.368;2023-05-21T03:25:14;48.17;;;30.27;;
44270;SDS011;29963;44.594;11.368;2023-05-21T03:27:40;48.15;;;33.72;;
44270;SDS011;29963;44.594;11.368;2023-05-21T03:30:05;51.13;;;33.20;;
44270;SDS011;29963;44.594;11.368;2023-05-21T03:32:34;49.80;;;32.15;;
44270;SDS011;29963;44.594;11.368;2023-05-21T03:35:01;45.75;;;31.67;;
44270;SDS011;29963;44.594;11.368;2023-05-21T03:37:28;51.28;;;32.15;;
44270;SDS011;29963;44.594;11.368;2023-05-21T03:39:53;46.28;;;32.08;;
44270;SDS011;29963;44.594;11.368;2023-05-21T03:42:19;55.95;;;34.35;;
44270;SDS011;29963;44.594;11.368;2023-05-21T03:44:44;54.17;;;34.33;;
44270;SDS011;29963;44.594;11.368;2023-05-21T03:47:10;47.67;;;32.45;;
44270;SDS011;29963;44.594;11.368;2023-05-21T03:49:36;54.65;;;34.83;;
44270;SDS011;29963;44.594;11.368;2023-05-21T03:52:01;50.50;;;33.15;;
44270;SDS011;29963;44.594;11.368;2023-05-21T03:54:27;54.42;;;33.50;;
44270;SDS011;29963;44.594;11.368;2023-05-21T03:56:52;58.10;;;34.03;;
44270;SDS011;29963;44.594;11.368;2023-05-21T03:59:18;60.45;;;35.47;;
44270;SDS011;29963;44.594;11.368;2023-05-21T04:01:43;60.50;;;38.17;;
44270;SDS011;29963;44.594;11.368;2023-05-21T04:04:09;63.40;;;37.80;;
44270;SDS011;29963;44.594;11.368;2023-05-21T04:06:35;65.85;;;39.13;;
44270;SDS011;29963;44.594;11.368;2023-05-21T04:09:02;63.13;;;39.25;;
44270;SDS011;29963;44.594;11.368;2023-05-21T04:11:28;62.95;;;38.90;;
44270;SDS011;29963;44.594;11.368;2023-05-21T04:13:55;79.95;;;43.97;;
44270;SDS011;29963;44.594;11.368;2023-05-21T04:16:21;69.85;;;41.03;;
44270;SDS011;29963;44.594;11.368;2023-05-21T04:18:48;76.50;;;43.00;;
44270;SDS011;29963;44.594;11.368;2023-05-21T04:21:14;77.32;;;43.03;;
44270;SDS011;29963;44.594;11.368;2023-05-21T04:23:40;68.05;;;42.80;;
44270;SDS011;29963;44.594;11.368;2023-05-21T04:26:05;67.25;;;41.33;;
44270;SDS011;29963;44.594;11.368;2023-05-21T04:28:31;77.82;;;44.60;;
44270;SDS011;29963;44.594;11.368;2023-05-21T04:30:57;69.65;;;45.38;;
44270;SDS011;29963;44.594;11.368;2023-05-21T04:33:22;75.95;;;47.40;;
44270;SDS011;29963;44.594;11.368;2023-05-21T04:35:51;77.95;;;46.85;;
44270;SDS011;29963;44.594;11.368;2023-05-21T04:38:17;72.85;;;47.58;;
44270;SDS011;29963;44.594;11.368;2023-05-21T04:40:48;90.53;;;48.15;;
44270;SDS011;29963;44.594;11.368;2023-05-21T04:43:17;78.70;;;48.97;;
44270;SDS011;29963;44.594;11.368;2023-05-21T04:45:50;80.20;;;46.40;;
44270;SDS011;29963;44.594;11.368;2023-05-21T04:48:16;84.70;;;48.85;;
44270;SDS011;29963;44.594;11.368;2023-05-21T04:50:42;84.13;;;48.33;;
44270;SDS011;29963;44.594;11.368;2023-05-21T04:53:08;75.00;;;46.60;;
44270;SDS011;29963;44.594;11.368;2023-05-21T04:55:34;83.57;;;49.00;;
44270;SDS011;29963;44.594;11.368;2023-05-21T04:58:04;87.13;;;51.15;;
44270;SDS011;29963;44.594;11.368;2023-05-21T05:00:31;72.00;;;45.83;;
44270;SDS011;29963;44.594;11.368;2023-05-21T05:02:57;74.50;;;49.08;;
44270;SDS011;29963;44.594;11.368;2023-05-21T05:05:23;68.85;;;43.50;;
44270;SDS011;29963;44.594;11.368;2023-05-21T05:07:48;79.45;;;49.05;;
44270;SDS011;29963;44.594;11.368;2023-05-21T05:10:14;74.53;;;47.22;;
44270;SDS011;29963;44.594;11.368;2023-05-21T05:12:40;65.47;;;44.75;;
44270;SDS011;29963;44.594;11.368;2023-05-21T05:15:06;76.90;;;46.67;;
44270;SDS011;29963;44.594;11.368;2023-05-21T05:17:32;69.47;;;44.63;;
44270;SDS011;29963;44.594;11.368;2023-05-21T05:19:58;71.55;;;46.78;;
44270;SDS011;29963;44.594;11.368;2023-05-21T05:22:24;74.05;;;46.30;;
44270;SDS011;29963;44.594;11.368;2023-05-21T05:24:49;71.82;;;45.30;;
44270;SDS011;29963;44.594;11.368;2023-05-21T05:27:15;72.90;;;46.00;;
44270;SDS011;29963;44.594;11.368;2023-05-21T05:29:42;66.30;;;43.33;;
44270;SDS011;29963;44.594;11.368;2023-05-21T05:32:08;75.82;;;45.83;;
44270;SDS011;29963;44.594;11.368;2023-05-21T05:34:34;69.18;;;47.03;;
44270;SDS011;29963;44.594;11.368;2023-05-21T05:36:59;75.10;;;45.90;;
44270;SDS011;29963;44.594;11.368;2023-05-21T05:39:26;74.57;;;47.47;;
44270;SDS011;29963;44.594;11.368;2023-05-21T05:41:52;73.05;;;47.75;;
44270;SDS011;29963;44.594;11.368;2023-05-21T05:44:18;71.03;;;45.88;;
44270;SDS011;29963;44.594;11.368;2023-05-21T05:46:43;73.13;;;45.13;;
44270;SDS011;29963;44.594;11.368;2023-05-21T05:49:09;76.47;;;46.42;;
44270;SDS011;29963;44.594;11.368;2023-05-21T05:51:35;82.30;;;48.05;;
44270;SDS011;29963;44.594;11.368;2023-05-21T05:54:01;79.40;;;47.10;;
44270;SDS011;29963;44.594;11.368;2023-05-21T05:56:26;73.35;;;46.60;;
44270;SDS011;29963;44.594;11.368;2023-05-21T05:58:52;79.63;;;47.50;;
44270;SDS011;29963;44.594;11.368;2023-05-21T06:01:18;74.93;;;46.53;;
44270;SDS011;29963;44.594;11.368;2023-05-21T06:03:43;74.57;;;44.30;;
44270;SDS011;29963;44.594;11.368;2023-05-21T06:06:09;73.35;;;45.53;;
44270;SDS011;29963;44.594;11.368;2023-05-21T06:08:35;71.80;;;45.10;;
44270;SDS011;29963;44.594;11.368;2023-05-21T06:11:01;69.45;;;43.20;;
44270;SDS011;29963;44.594;11.368;2023-05-21T06:13:27;79.40;;;45.58;;
44270;SDS011;29963;44.594;11.368;2023-05-21T06:15:52;71.55;;;43.70;;
44270;SDS011;29963;44.594;11.368;2023-05-21T06:18:18;73.85;;;47.40;;
44270;SDS011;29963;44.594;11.368;2023-05-21T06:20:44;74.90;;;45.65;;
44270;SDS011;29963;44.594;11.368;2023-05-21T06:23:09;69.78;;;44.03;;
44270;SDS011;29963;44.594;11.368;2023-05-21T06:25:35;73.03;;;45.22;;
44270;SDS011;29963;44.594;11.368;2023-05-21T06:28:01;71.78;;;45.42;;
44270;SDS011;29963;44.594;11.368;2023-05-21T06:30:27;64.28;;;42.85;;
44270;SDS011;29963;44.594;11.368;2023-05-21T06:32:52;63.20;;;42.35;;
44270;SDS011;29963;44.594;11.368;2023-05-21T06:35:18;70.32;;;43.75;;
44270;SDS011;29963;44.594;11.368;2023-05-21T06:37:44;64.18;;;43.28;;
44270;SDS011;29963;44.594;11.368;2023-05-21T06:40:10;60.97;;;40.40;;
44270;SDS011;29963;44.594;11.368;2023-05-21T06:42:35;60.00;;;40.85;;
44270;SDS011;29963;44.594;11.368;2023-05-21T06:45:01;60.20;;;38.90;;
44270;SDS011;29963;44.594;11.368;2023-05-21T06:47:27;62.78;;;41.38;;
44270;SDS011;29963;44.594;11.368;2023-05-21T06:49:52;57.40;;;40.25;;
44270;SDS011;29963;44.594;11.368;2023-05-21T06:52:18;67.32;;;39.25;;
44270;SDS011;29963;44.594;11.368;2023-05-21T06:54:43;54.05;;;37.92;;
44270;SDS011;29963;44.594;11.368;2023-05-21T06:57:09;51.85;;;37.05;;
44270;SDS011;29963;44.594;11.368;2023-05-21T06:59:34;54.60;;;39.17;;
44270;SDS011;29963;44.594;11.368;2023-05-21T07:02:00;52.10;;;37.83;;
44270;SDS011;29963;44.594;11.368;2023-05-21T07:04:26;47.80;;;36.17;;
44270;SDS011;29963;44.594;11.368;2023-05-21T07:06:51;51.33;;;35.78;;
44270;SDS011;29963;44.594;11.368;2023-05-21T07:09:18;54.55;;;36.95;;
44270;SDS011;29963;44.594;11.368;2023-05-21T07:11:44;46.33;;;35.30;;
44270;SDS011;29963;44.594;11.368;2023-05-21T07:14:09;48.88;;;36.40;;
44270;SDS011;29963;44.594;11.368;2023-05-21T07:16:35;56.45;;;35.88;;
44270;SDS011;29963;44.594;11.368;2023-05-21T07:19:00;49.58;;;37.33;;
44270;SDS011;29963;44.594;11.368;2023-05-21T07:21:26;46.75;;;37.22;;
44270;SDS011;29963;44.594;11.368;2023-05-21T07:23:52;48.70;;;36.97;;
44270;SDS011;29963;44.594;11.368;2023-05-21T07:26:17;43.15;;;34.60;;
44270;SDS011;29963;44.594;11.368;2023-05-21T07:28:43;45.38;;;35.50;;
44270;SDS011;29963;44.594;11.368;2023-05-21T07:31:09;45.90;;;35.40;;
44270;SDS011;29963;44.594;11.368;2023-05-21T07:33:36;47.10;;;33.42;;
44270;SDS011;29963;44.594;11.368;2023-05-21T07:36:02;45.92;;;36.08;;
44270;SDS011;29963;44.594;11.368;2023-05-21T07:38:28;39.53;;;33.20;;
44270;SDS011;29963;44.594;11.368;2023-05-21T07:40:53;47.40;;;33.45;;
44270;SDS011;29963;44.594;11.368;2023-05-21T07:43:20;46.30;;;35.47;;
44270;SDS011;29963;44.594;11.368;2023-05-21T07:45:46;44.25;;;35.40;;
44270;SDS011;29963;44.594;11.368;2023-05-21T07:48:11;38.60;;;30.83;;
44270;SDS011;29963;44.594;11.368;2023-05-21T07:50:38;43.25;;;31.70;;
44270;SDS011;29963;44.594;11.368;2023-05-21T07:53:03;48.13;;;33.78;;
44270;SDS011;29963;44.594;11.368;2023-05-21T07:55:29;41.70;;;32.10;;
44270;SDS011;29963;44.594;11.368;2023-05-21T07:57:54;45.35;;;32.53;;
44270;SDS011;29963;44.594;11.368;2023-05-21T08:00:22;39.55;;;31.42;;
44270;SDS011;29963;44.594;11.368;2023-05-21T08:02:47;40.58;;;29.85;;
44270;SDS011;29963;44.594;11.368;2023-05-21T08:05:16;35.33;;;28.77;;
44270;SDS011;29963;44.594;11.368;2023-05-21T08:07:42;39.20;;;29.73;;
44270;SDS011;29963;44.594;11.368;2023-05-21T08:10:07;39.22;;;30.52;;
44270;SDS011;29963;44.594;11.368;2023-05-21T08:12:33;41.83;;;31.40;;
44270;SDS011;29963;44.594;11.368;2023-05-21T08:14:59;32.13;;;27.77;;
44270;SDS011;29963;44.594;11.368;2023-05-21T08:17:24;38.13;;;29.20;;
44270;SDS011;29963;44.594;11.368;2023-05-21T08:19:52;37.75;;;28.77;;
44270;SDS011;29963;44.594;11.368;2023-05-21T08:22:17;42.40;;;30.00;;
44270;SDS011;29963;44.594;11.368;2023-05-21T08:24:43;35.45;;;29.13;;
44270;SDS011;29963;44.594;11.368;2023-05-21T08:27:09;35.13;;;26.23;;
44270;SDS011;29963;44.594;11.368;2023-05-21T08:29:34;30.63;;;26.70;;
44270;SDS011;29963;44.594;11.368;2023-05-21T08:32:00;30.52;;;24.92;;
44270;SDS011;29963;44.594;11.368;2023-05-21T08:34:26;33.65;;;25.55;;
44270;SDS011;29963;44.594;11.368;2023-05-21T08:36:51;30.23;;;24.25;;
44270;SDS011;29963;44.594;11.368;2023-05-21T08:39:18;29.15;;;24.75;;
44270;SDS011;29963;44.594;11.368;2023-05-21T08:41:43;27.67;;;22.92;;
44270;SDS011;29963;44.594;11.368;2023-05-21T08:44:13;28.65;;;24.80;;
44270;SDS011;29963;44.594;11.368;2023-05-21T08:46:41;29.83;;;24.05;;
44270;SDS011;29963;44.594;11.368;2023-05-21T08:49:12;29.25;;;25.02;;
44270;SDS011;29963;44.594;11.368;2023-05-21T08:51:41;31.40;;;24.17;;
44270;SDS011;29963;44.594;11.368;2023-05-21T08:54:08;31.95;;;24.45;;
44270;SDS011;29963;44.594;11.368;2023-05-21T08:56:35;28.35;;;23.77;;
44270;SDS011;29963;44.594;11.368;2023-05-21T08:59:04;27.77;;;23.80;;
44270;SDS011;29963;44.594;11.368;2023-05-21T09:01:31;28.95;;;24.25;;
44270;SDS011;29963;44.594;11.368;2023-05-21T09:03:58;25.45;;;22.50;;
44270;SDS011;29963;44.594;11.368;2023-05-21T09:06:26;26.92;;;21.58;;
44270;SDS011;29963;44.594;11.368;2023-05-21T09:08:57;25.25;;;20.95;;
44270;SDS011;29963;44.594;11.368;2023-05-21T09:11:26;21.55;;;19.27;;
44270;SDS011;29963;44.594;11.368;2023-05-21T09:13:53;25.35;;;22.35;;
44270;SDS011;29963;44.594;11.368;2023-05-21T09:16:21;28.88;;;22.38;;
44270;SDS011;29963;44.594;11.368;2023-05-21T09:18:47;27.33;;;22.15;;
44270;SDS011;29963;44.594;11.368;2023-05-21T09:21:26;23.95;;;20.17;;
44270;SDS011;29963;44.594;11.368;2023-05-21T09:23:57;24.88;;;20.42;;
44270;SDS011;29963;44.594;11.368;2023-05-21T09:26:23;26.13;;;21.40;;
44270;SDS011;29963;44.594;11.368;2023-05-21T09:28:50;22.02;;;18.38;;
44270;SDS011;29963;44.594;11.368;2023-05-21T09:31:21;22.00;;;19.65;;
44270;SDS011;29963;44.594;11.368;2023-05-21T09:33:48;27.00;;;20.08;;
44270;SDS011;29963;44.594;11.368;2023-05-21T09:36:14;22.42;;;20.00;;
44270;SDS011;29963;44.594;11.368;2023-05-21T09:38:41;24.25;;;20.15;;
44270;SDS011;29963;44.594;11.368;2023-05-21T09:41:09;22.55;;;19.52;;
44270;SDS011;29963;44.594;11.368;2023-05-21T09:43:35;20.52;;;18.38;;
44270;SDS011;29963;44.594;11.368;2023-05-21T09:46:00;22.77;;;20.17;;
44270;SDS011;29963;44.594;11.368;2023-05-21T09:51:11;23.25;;;20.25;;
44270;SDS011;29963;44.594;11.368;2023-05-21T09:53:54;22.05;;;19.67;;
44270;SDS011;29963;44.594;11.368;2023-05-21T09:56:24;23.08;;;19.88;;
44270;SDS011;29963;44.594;11.368;2023-05-21T09:58:52;26.20;;;18.85;;
44270;SDS011;29963;44.594;11.368;2023-05-21T10:01:22;27.83;;;19.00;;
44270;SDS011;29963;44.594;11.368;2023-05-21T10:03:54;24.45;;;20.85;;
44270;SDS011;29963;44.594;11.368;2023-05-21T10:06:23;22.10;;;19.75;;
44270;SDS011;29963;44.594;11.368;2023-05-21T10:08:55;23.02;;;20.40;;
44270;SDS011;29963;44.594;11.368;2023-05-21T10:11:24;20.38;;;18.38;;
44270;SDS011;29963;44.594;11.368;2023-05-21T10:13:59;23.48;;;19.17;;
44270;SDS011;29963;44.594;11.368;2023-05-21T10:16:29;23.98;;;18.13;;
44270;SDS011;29963;44.594;11.368;2023-05-21T10:18:57;18.88;;;16.88;;
44270;SDS011;29963;44.594;11.368;2023-05-21T10:21:24;19.75;;;17.38;;
44270;SDS011;29963;44.594;11.368;2023-05-21T10:23:50;19.90;;;17.92;;
44270;SDS011;29963;44.594;11.368;2023-05-21T10:26:23;20.65;;;16.15;;
44270;SDS011;29963;44.594;11.368;2023-05-21T10:28:51;20.52;;;17.23;;
44270;SDS011;29963;44.594;11.368;2023-05-21T10:31:20;17.85;;;15.75;;
44270;SDS011;29963;44.594;11.368;2023-05-21T10:33:47;19.85;;;16.00;;
44270;SDS011;29963;44.594;11.368;2023-05-21T10:36:15;20.98;;;17.50;;
44270;SDS011;29963;44.594;11.368;2023-05-21T10:38:42;17.52;;;14.60;;
44270;SDS011;29963;44.594;11.368;2023-05-21T10:41:08;16.35;;;14.65;;
44270;SDS011;29963;44.594;11.368;2023-05-21T10:46:52;16.83;;;14.70;;
44270;SDS011;29963;44.594;11.368;2023-05-21T10:52:33;19.13;;;15.90;;
44270;SDS011;29963;44.594;11.368;2023-05-21T11:00:12;16.98;;;14.50;;
44270;SDS011;29963;44.594;11.368;2023-05-21T11:02:40;14.40;;;12.90;;
44270;SDS011;29963;44.594;11.368;2023-05-21T11:05:06;14.20;;;12.77;;
44270;SDS011;29963;44.594;11.368;2023-05-21T11:13:11;13.70;;;12.40;;
44270;SDS011;29963;44.594;11.368;2023-05-21T11:18:22;14.05;;;12.68;;
44270;SDS011;29963;44.594;11.368;2023-05-21T11:21:08;15.05;;;13.50;;
44270;SDS011;29963;44.594;11.368;2023-05-21T11:23:54;15.20;;;13.00;;
44270;SDS011;29963;44.594;11.368;2023-05-21T11:29:19;16.52;;;14.65;;
44270;SDS011;29963;44.594;11.368;2023-05-21T11:31:45;15.65;;;14.05;;
44270;SDS011;29963;44.594;11.368;2023-05-21T11:34:25;17.92;;;13.80;;
44270;SDS011;29963;44.594;11.368;2023-05-21T11:39:41;13.93;;;12.10;;
44270;SDS011;29963;44.594;11.368;2023-05-21T11:42:07;15.63;;;13.65;;
44270;SDS011;29963;44.594;11.368;2023-05-21T11:44:37;15.57;;;13.93;;
44270;SDS011;29963;44.594;11.368;2023-05-21T11:47:04;15.85;;;13.55;;
44270;SDS011;29963;44.594;11.368;2023-05-21T11:49:31;15.95;;;13.07;;
44270;SDS011;29963;44.594;11.368;2023-05-21T11:51:59;16.38;;;14.10;;
44270;SDS011;29963;44.594;11.368;2023-05-21T11:54:26;17.23;;;13.38;;
44270;SDS011;29963;44.594;11.368;2023-05-21T11:56:53;14.48;;;13.07;;
44270;SDS011;29963;44.594;11.368;2023-05-21T11:59:19;14.02;;;12.73;;
44270;SDS011;29963;44.594;11.368;2023-05-21T12:01:45;16.10;;;14.40;;
44270;SDS011;29963;44.594;11.368;2023-05-21T12:04:10;18.33;;;12.85;;
44270;SDS011;29963;44.594;11.368;2023-05-21T12:06:41;14.30;;;12.95;;
44270;SDS011;29963;44.594;11.368;2023-05-21T12:09:09;13.93;;;12.48;;
44270;SDS011;29963;44.594;11.368;2023-05-21T12:11:36;15.57;;;13.07;;
44270;SDS011;29963;44.594;11.368;2023-05-21T12:14:07;12.98;;;11.32;;
44270;SDS011;29963;44.594;11.368;2023-05-21T12:16:34;11.90;;;10.80;;
44270;SDS011;29963;44.594;11.368;2023-05-21T12:19:01;16.10;;;13.60;;
44270;SDS011;29963;44.594;11.368;2023-05-21T12:21:30;14.20;;;12.60;;
44270;SDS011;29963;44.594;11.368;2023-05-21T12:23:59;14.52;;;12.98;;
44270;SDS011;29963;44.594;11.368;2023-05-21T12:26:25;20.77;;;14.38;;
44270;SDS011;29963;44.594;11.368;2023-05-21T12:28:52;13.05;;;11.95;;
44270;SDS011;29963;44.594;11.368;2023-05-21T12:31:21;13.35;;;12.10;;
44270;SDS011;29963;44.594;11.368;2023-05-21T12:33:50;13.55;;;12.15;;
44270;SDS011;29963;44.594;11.368;2023-05-21T12:36:20;16.52;;;12.07;;
44270;SDS011;29963;44.594;11.368;2023-05-21T12:38:53;13.93;;;12.48;;
44270;SDS011;29963;44.594;11.368;2023-05-21T12:41:20;13.13;;;11.80;;
44270;SDS011;29963;44.594;11.368;2023-05-21T12:43:46;13.73;;;12.32;;
44270;SDS011;29963;44.594;11.368;2023-05-21T12:46:13;11.43;;;9.88;;
44270;SDS011;29963;44.594;11.368;2023-05-21T12:48:46;12.27;;;11.10;;
44270;SDS011;29963;44.594;11.368;2023-05-21T12:51:21;16.95;;;11.90;;
44270;SDS011;29963;44.594;11.368;2023-05-21T12:53:46;10.77;;;9.77;;
44270;SDS011;29963;44.594;11.368;2023-05-21T12:56:13;12.85;;;11.52;;
44270;SDS011;29963;44.594;11.368;2023-05-21T12:58:40;12.30;;;11.00;;
44270;SDS011;29963;44.594;11.368;2023-05-21T13:01:09;11.20;;;10.15;;
44270;SDS011;29963;44.594;11.368;2023-05-21T13:03:36;12.93;;;11.57;;
44270;SDS011;29963;44.594;11.368;2023-05-21T13:06:06;10.80;;;9.70;;
44270;SDS011;29963;44.594;11.368;2023-05-21T13:08:32;10.20;;;9.15;;
44270;SDS011;29963;44.594;11.368;2023-05-21T13:11:01;13.20;;;9.48;;
44270;SDS011;29963;44.594;11.368;2023-05-21T13:13:27;13.55;;;11.07;;
44270;SDS011;29963;44.594;11.368;2023-05-21T13:15:53;11.02;;;9.82;;
44270;SDS011;29963;44.594;11.368;2023-05-21T13:18:20;10.93;;;9.82;;
44270;SDS011;29963;44.594;11.368;2023-05-21T13:20:46;12.95;;;9.43;;
44270;SDS011;29963;44.594;11.368;2023-05-21T13:23:16;9.35;;;8.55;;
44270;SDS011;29963;44.594;11.368;2023-05-21T13:25:41;12.55;;;9.02;;
44270;SDS011;29963;44.594;11.368;2023-05-21T13:28:07;11.95;;;9.77;;
44270;SDS011;29963;44.594;11.368;2023-05-21T13:30:34;8.65;;;7.85;;
44270;SDS011;29963;44.594;11.368;2023-05-21T13:33:00;10.02;;;9.02;;
44270;SDS011;29963;44.594;11.368;2023-05-21T13:35:26;13.82;;;9.13;;
44270;SDS011;29963;44.594;11.368;2023-05-21T13:37:52;9.35;;;8.00;;
44270;SDS011;29963;44.594;11.368;2023-05-21T13:40:18;9.80;;;8.85;;
44270;SDS011;29963;44.594;11.368;2023-05-21T13:42:44;9.25;;;7.78;;
44270;SDS011;29963;44.594;11.368;2023-05-21T13:45:12;10.38;;;8.38;;
44270;SDS011;29963;44.594;11.368;2023-05-21T13:47:40;8.23;;;7.47;;
44270;SDS011;29963;44.594;11.368;2023-05-21T13:50:07;10.85;;;8.85;;
44270;SDS011;29963;44.594;11.368;2023-05-21T13:52:33;11.85;;;8.68;;
44270;SDS011;29963;44.594;11.368;2023-05-21T13:54:59;8.43;;;7.63;;
44270;SDS011;29963;44.594;11.368;2023-05-21T13:57:25;8.23;;;7.43;;
44270;SDS011;29963;44.594;11.368;2023-05-21T13:59:55;9.02;;;8.18;;
44270;SDS011;29963;44.594;11.368;2023-05-21T14:02:21;9.27;;;8.32;;
44270;SDS011;29963;44.594;11.368;2023-05-21T14:04:47;9.18;;;8.15;;
44270;SDS011;29963;44.594;11.368;2023-05-21T14:07:15;8.60;;;7.38;;
44270;SDS011;29963;44.594;11.368;2023-05-21T14:09:41;9.95;;;8.82;;
44270;SDS011;29963;44.594;11.368;2023-05-21T14:12:07;10.15;;;8.55;;
44270;SDS011;29963;44.594;11.368;2023-05-21T14:14:33;10.27;;;9.10;;
44270;SDS011;29963;44.594;11.368;2023-05-21T14:16:58;9.73;;;8.75;;
44270;SDS011;29963;44.594;11.368;2023-05-21T14:19:24;11.50;;;8.60;;
44270;SDS011;29963;44.594;11.368;2023-05-21T14:21:52;8.32;;;7.38;;
44270;SDS011;29963;44.594;11.368;2023-05-21T14:24:18;9.20;;;7.57;;
44270;SDS011;29963;44.594;11.368;2023-05-21T14:26:44;11.15;;;7.55;;
44270;SDS011;29963;44.594;11.368;2023-05-21T14:29:10;10.05;;;7.65;;
44270;SDS011;29963;44.594;11.368;2023-05-21T14:31:35;7.55;;;6.85;;
44270;SDS011;29963;44.594;11.368;2023-05-21T14:34:03;8.90;;;7.90;;
44270;SDS011;29963;44.594;11.368;2023-05-21T14:36:30;11.02;;;7.00;;
44270;SDS011;29963;44.594;11.368;2023-05-21T14:38:56;8.20;;;7.40;;
44270;SDS011;29963;44.594;11.368;2023-05-21T14:41:28;8.20;;;6.75;;
44270;SDS011;29963;44.594;11.368;2023-05-21T14:43:54;9.18;;;7.18;;
44270;SDS011;29963;44.594;11.368;2023-05-21T14:46:19;7.55;;;6.75;;